createdAt,value
2022-08-17T00:02:34.434Z,95689.81
2022-08-17T00:07:49.733Z,95705.75
2022-08-17T00:12:58.456Z,95707.25
2022-08-17T00:19:02.108Z,95706.50
2022-08-17T00:23:35.573Z,95699.19
2022-08-17T00:28:40.192Z,95713.13
2022-08-17T00:33:48.001Z,95687.56
2022-08-17T00:38:58.431Z,95694.09
2022-08-17T00:44:10.889Z,95684.25
2022-08-17T00:49:28.547Z,95677.22
2022-08-17T00:54:46.274Z,95675.75
2022-08-17T01:00:02.978Z,95675.25
2022-08-17T01:05:14.642Z,95668.44
2022-08-17T01:10:59.610Z,95676.47
2022-08-17T01:16:38.909Z,95667.44
2022-08-17T01:21:45.772Z,95663.38
2022-08-17T01:26:52.355Z,95684.13
2022-08-17T01:38:18.338Z,95687.94
2022-08-17T01:44:39.180Z,95681.13
2022-08-17T01:56:45.170Z,95661.94
2022-08-17T02:19:10.720Z,95641.72
2022-08-17T02:43:07.856Z,95628.31
2022-08-17T02:55:14.683Z,95617.72
2022-08-17T03:06:57.612Z,95651.34
2022-08-17T03:12:59.212Z,95599.00
2022-08-17T03:19:01.388Z,95597.75
2022-08-17T03:24:54.734Z,95577.53
2022-08-17T03:31:05.795Z,95626.81
2022-08-17T03:36:46.111Z,95636.91
2022-08-17T03:43:22.984Z,95651.34
2022-08-17T03:55:58.867Z,95648.53
2022-08-17T04:06:32.385Z,95667.03
2022-08-17T04:07:37.019Z,95625.53
2022-08-17T04:12:51.871Z,95661.47
2022-08-17T04:17:57.200Z,95653.09
2022-08-17T04:23:05.938Z,95662.44
2022-08-17T04:28:15.608Z,95685.22
2022-08-17T04:33:25.467Z,95665.47
2022-08-17T04:38:32.146Z,95664.22
2022-08-17T04:43:39.822Z,95660.16
2022-08-17T04:48:47.717Z,95645.50
2022-08-17T04:53:57.195Z,95655.09
2022-08-17T04:59:06.080Z,95666.44
2022-08-17T05:04:21.127Z,95665.16
2022-08-17T05:09:37.740Z,95653.03
2022-08-17T05:14:41.212Z,95652.72
2022-08-17T05:19:47.578Z,95651.16
2022-08-17T05:24:53.770Z,95657.09
2022-08-17T05:29:58.830Z,95658.47
2022-08-17T05:35:06.184Z,95665.19
2022-08-17T05:40:10.767Z,95679.25
2022-08-17T05:45:16.633Z,95678.88
2022-08-17T05:50:42.617Z,95682.66
2022-08-17T05:55:59.906Z,95688.31
2022-08-17T06:01:36.337Z,95686.41
2022-08-17T06:07:07.795Z,95697.81
2022-08-17T06:12:40.218Z,95694.75
2022-08-17T06:17:44.295Z,95700.78
2022-08-17T06:22:52.609Z,95702.41
2022-08-17T06:28:05.496Z,95713.72
2022-08-17T06:33:22.189Z,95715.75
2022-08-17T06:38:50.843Z,95723.00
2022-08-17T06:44:43.265Z,95725.38
2022-08-17T06:50:03.902Z,95716.00
2022-08-17T06:55:17.782Z,95727.16
2022-08-17T07:00:30.100Z,95722.44
2022-08-17T07:05:47.609Z,95733.78
2022-08-17T07:10:56.682Z,95744.66
2022-08-17T07:16:24.684Z,95751.38
2022-08-17T07:21:41.659Z,95745.19
2022-08-17T07:26:44.883Z,95746.59
2022-08-17T07:31:48.260Z,95749.97
2022-08-17T07:37:05.948Z,95751.59
2022-08-17T07:42:11.417Z,95757.47
2022-08-17T07:47:36.236Z,95749.34
2022-08-17T07:52:50.692Z,95747.41
2022-08-17T07:57:58.146Z,95770.72
2022-08-17T08:03:12.599Z,95766.97
2022-08-17T08:08:43.029Z,95775.94
2022-08-17T08:13:46.763Z,95779.94
2022-08-17T08:18:56.066Z,95775.59
2022-08-17T08:24:44.191Z,95764.38
2022-08-17T08:29:54.394Z,95763.97
2022-08-17T08:35:05.426Z,95769.50
2022-08-17T08:40:57.076Z,95753.00
2022-08-17T08:46:19.595Z,95728.28
2022-08-17T08:51:51.663Z,95769.72
2022-08-17T08:57:45.930Z,95762.47
2022-08-17T09:03:04.428Z,95757.47
2022-08-17T09:08:29.578Z,95742.28
2022-08-17T09:14:21.518Z,95735.31
2022-08-17T09:20:05.778Z,95747.97
2022-08-17T09:31:49.627Z,95737.22
2022-08-17T09:38:07.486Z,95766.09
2022-08-17T09:44:22.723Z,95763.13
2022-08-17T09:56:26.812Z,95745.56
2022-08-17T10:08:42.700Z,95718.06
2022-08-17T10:14:38.109Z,95748.69
2022-08-17T10:20:20.030Z,95754.03
2022-08-17T10:25:54.581Z,95751.69
2022-08-17T10:31:36.546Z,95752.41
2022-08-17T10:37:26.252Z,95743.28
2022-08-17T10:49:48.657Z,95714.03
2022-08-17T10:55:35.634Z,95752.50
2022-08-17T11:01:31.744Z,95733.22
2022-08-17T11:06:59.607Z,95743.34
2022-08-17T11:31:48.535Z,95748.56
2022-08-17T11:44:37.664Z,95737.31
2022-08-17T11:57:13.801Z,95678.44
2022-08-17T12:15:13.927Z,95722.47
2022-08-17T12:20:47.319Z,95749.91
2022-08-17T12:26:20.955Z,95740.31
2022-08-17T12:37:31.144Z,95734.16
2022-08-17T12:55:55.625Z,95694.94
2022-08-17T13:01:57.729Z,95652.59
2022-08-17T13:07:54.406Z,95669.03
2022-08-17T13:13:46.303Z,95681.75
2022-08-17T13:19:43.881Z,95658.03
2022-08-17T13:25:29.169Z,95682.06
2022-08-17T13:32:03.849Z,95645.56
2022-08-17T13:44:23.877Z,95662.28
2022-08-17T13:56:45.878Z,95646.06
2022-08-17T14:02:05.469Z,95668.88
2022-08-17T14:07:14.918Z,95681.75
2022-08-17T14:12:31.199Z,95656.88
2022-08-17T14:17:57.989Z,95653.59
2022-08-17T14:23:25.420Z,95640.16
2022-08-17T14:29:15.000Z,95621.81
2022-08-17T14:34:49.706Z,95628.28
2022-08-17T14:58:46.447Z,95575.47
2022-08-17T15:10:03.814Z,95581.81
2022-08-17T15:27:32.398Z,95617.28
2022-08-17T15:33:20.587Z,95596.81
2022-08-17T15:38:44.421Z,95628.69
2022-08-17T15:43:52.077Z,95637.50
2022-08-17T15:49:15.056Z,95633.16
2022-08-17T15:55:09.820Z,95586.47
2022-08-17T16:00:26.366Z,95598.19
2022-08-17T16:05:52.079Z,95638.78
2022-08-17T16:12:19.548Z,95634.53
2022-08-17T16:24:15.581Z,95629.00
2022-08-17T16:35:46.037Z,95628.72
2022-08-17T16:41:41.537Z,95602.88
2022-08-17T16:52:44.584Z,95614.00
2022-08-17T17:04:39.304Z,95590.78
2022-08-17T17:15:58.095Z,95586.44
2022-08-17T17:27:51.280Z,95556.53
2022-08-17T17:33:07.997Z,95555.78
2022-08-17T17:38:22.441Z,95567.41
2022-08-17T17:43:38.811Z,95573.66
2022-08-17T17:48:43.782Z,95558.16
2022-08-17T17:54:02.589Z,95573.50
2022-08-17T17:59:34.510Z,95552.88
2022-08-17T18:04:53.677Z,95560.88
2022-08-17T18:10:19.497Z,95567.06
2022-08-17T18:15:52.046Z,95539.44
2022-08-17T18:21:16.229Z,95554.94
2022-08-17T18:26:38.116Z,95530.06
2022-08-17T18:31:45.479Z,95544.28
2022-08-17T18:36:50.001Z,95538.59
2022-08-17T18:42:03.708Z,95550.50
2022-08-17T18:47:10.134Z,95548.47
2022-08-17T18:52:24.586Z,95566.34
2022-08-17T18:57:36.046Z,95549.50
2022-08-17T19:03:13.288Z,95547.84
2022-08-17T19:08:31.278Z,95556.53
2022-08-17T19:13:53.666Z,95535.72
2022-08-17T19:19:05.923Z,95529.34
2022-08-17T19:24:22.322Z,95513.91
2022-08-17T19:29:34.371Z,95520.66
2022-08-17T19:34:40.498Z,95549.03
2022-08-17T19:40:03.325Z,95543.34
2022-08-17T19:45:28.525Z,95569.69
2022-08-17T19:50:39.256Z,95577.75
2022-08-17T19:56:16.889Z,95563.28
2022-08-17T20:01:46.841Z,95575.69
2022-08-17T20:06:55.079Z,95571.19
2022-08-17T20:12:06.903Z,95573.06
2022-08-17T20:17:24.492Z,95580.56
2022-08-17T20:22:52.435Z,95562.50
2022-08-17T20:28:06.240Z,95584.91
2022-08-17T20:33:34.794Z,95572.50
2022-08-17T20:38:49.593Z,95576.63
2022-08-17T20:43:56.552Z,95558.63
2022-08-17T20:49:44.614Z,95558.81
2022-08-17T20:55:00.692Z,95543.78
2022-08-17T21:00:32.114Z,95537.16
2022-08-17T21:12:51.639Z,95510.72
2022-08-17T21:19:10.718Z,95547.53
2022-08-17T21:31:46.938Z,95492.69
2022-08-17T21:37:45.528Z,95501.69
2022-08-17T21:43:35.854Z,95506.75
2022-08-17T21:49:14.415Z,95481.03
2022-08-17T21:55:12.204Z,95523.69
2022-08-17T22:00:28.945Z,95535.72
2022-08-17T22:06:56.904Z,95538.91
2022-08-17T22:12:05.488Z,95557.28
2022-08-17T22:30:04.679Z,95637.56
2022-08-17T22:35:42.423Z,95728.13
2022-08-17T22:41:32.150Z,95736.38
2022-08-17T22:47:56.831Z,95745.31
2022-08-17T22:54:05.386Z,95728.41
2022-08-17T23:00:34.256Z,95776.44
2022-08-17T23:06:17.876Z,95740.84
2022-08-17T23:12:17.288Z,95739.13
2022-08-17T23:18:17.342Z,95780.84
2022-08-17T23:23:34.800Z,95785.16
2022-08-17T23:35:19.068Z,95765.00
2022-08-17T23:41:32.419Z,95774.66
2022-08-17T23:47:19.118Z,95775.63
2022-08-17T23:53:14.863Z,95781.59
2022-08-17T23:59:04.578Z,95806.44
